Terminal Aerodrome Forecast
Issued by NWS

Home | Current Version | Previous Version | Graphics & Text | Print | Product List | Glossary On
Versions: 1 2 3 4 5 6 7 8 9 10 11 12 13 14 15 16 17 18 19 20 21
000
FTUS43 KFGF 181400 AAB
TAFBJI
TAF AMD
KBJI 181459Z 1815/1912 15003KT P6SM SCT050
      TEMPO 1816/1819 BKN050
     FM181900 VRB04KT P6SM VCTS BKN025CB
     FM190300 33003KT P6SM SCT025 BKN100=

USA.gov is the U.S. government's official web portal to all federal, state and local government web resources and services.